--

Current Conditions

Updated: 20-Feb-2020 1:07 PM  
Summary / Temperature Wind Rain






Feels like: 71°F

1-hour difference
2.0°F 2.0°F warmer than last hour.

24-hour difference
2.8°F2.8°F warmer than yesterday at this time.

  Today Yesterday
High: 71.1°F
1:04 PM
70.1°F
2:04 PM
Low: 37.8°F
6:22 AM
38.8°F
6:43 AM
Wind from WNW WNW
2.2
Gust:  2.0 mph
0 Beaufort - Light Air

Today: 4.6 - 12:43 PM
Month: 18.4 mph - Feb 3
Rain Today: 0.00 in
Current Rate (/hr): 0.000 in
Max Rate (/hr):
Rain Yesterday: 0.00 in
Storm Rain: 0.00 in
This Month: 0.01 in
Season Total: 4.26 in
Last Rain Event: 19 days ago
Humidity / Barometer Sun / Moon
Humidity: 36 Decreased 9.0% in the last hour.
Dew Point: 42.8°F Decreased 3.9°F in the last hour.
Barometer: 30.086 inHg  
Baro Trend: Falling
Sunrise: 6:38 AM
Sunset: 5:41 PM
Moonrise: 5:01 AM
Moonset: 2:59 PM
Sky Conditions UV Index
Summary: Clear
Visibility: 10 miles
Clouds: None
KVIS - 12:56 PM PST
Current: 4.0  Moderate 
Thursday: 3.9  Moderate 
Friday: 3.8  Moderate 
Air Quality Fire Danger
PM2.5 29 μg/m3
Ozone 38 ppb
1:00 PM PST
Current: 43  Low 

Local Alerts Local Forecast
Local NWS Alerts
Today

Sunny

High 73
Tonight

Mostly
Clear
Low 43
Fri

Mostly
Sunny
High 73
Fri night

Rain
Showers
Low 48
Sat

Rain
Showers
High 58
Sat night

Rain
Showers
Low 43
Sun

Mostly
Sunny
High 66

Local Radar Local Satellite Neighborhood Cam Sky Cam
Local Radar Local Satellite Neighborhood Cam Sky Cam


Nearby Airport Stations

KVIS - Visalia, California, USA
Distance from station: W 14mi, 23km
Updated: Thu, 20-Feb-2020 12:56pm PST
Clear
Clear
 Wind from varies
Wind: varies 5 mph , 7 km/h
Temperature: 70°F , 21°C
Dew Point: 39°F , 4°C
Humidity: 33%
Barometer: 30.11 inHg , 1019.6 hPa
Clouds: Clear
Visibility: 10 miles , 16 km
2020/02/20 20:56 KVIS 202056Z AUTO VRB04KT 10SM CLR 21/04 A3011 RMK AO2 SLP203 T02110044
KPTV - Porterville, California, USA
Distance from station: SSE 19mi, 31km
Updated: Thu, 20-Feb-2020 12:56pm PST
Clear
Clear
 Wind from NNE
Wind: NNE 5 mph , 7 km/h
Temperature: 72°F , 22°C
Dew Point: 37°F , 3°C
Humidity: 29%
Barometer: 30.09 inHg , 1019 hPa
Clouds: Clear
Visibility: 10 miles , 16 km
2020/02/20 20:56 KPTV 202056Z AUTO 02004KT 10SM CLR 22/03 A3009 RMK AO2 SLP190 T02220033 58026

Metar display script from Saratoga-Weather.org



Visitor Map